Time;durP1;ratioP1;P1;durP2;ratioP2;P2;SDS_P1;SDS_P2;PMS_P1;PMS_P2;Temp;Humidity;BMP_temperature;BMP_pressure;BME280_temperature;BME280_humidity;BME280_pressure;Samples;Min_cycle;Max_cycle;Signal;HPM_P1;HPM_P2
2023/12/15 00:01:52;;;;;;;20.50;9.30;;;;;;;0.57;100.00;100468.77;109128;1257;58791;-65
2023/12/15 00:04:39;;;;;;;23.40;9.20;;;;;;;0.54;100.00;100472.53;109067;1257;60093;-66
2023/12/15 00:07:27;;;;;;;19.60;8.90;;;;;;;0.56;100.00;100480.86;109048;1257;74045;-67
2023/12/15 00:10:16;;;;;;;22.50;9.90;;;;;;;0.54;100.00;100483.19;109130;1257;66737;-67
2023/12/15 00:13:03;;;;;;;20.20;9.20;;;;;;;0.55;100.00;100482.82;109088;1257;71785;-66
2023/12/15 00:15:53;;;;;;;18.90;8.70;;;;;;;0.55;100.00;100480.54;109100;1257;57989;-68
2023/12/15 00:18:41;;;;;;;18.50;8.80;;;;;;;0.55;100.00;100482.09;109064;1257;58228;-67
2023/12/15 00:21:28;;;;;;;18.60;8.50;;;;;;;0.57;100.00;100483.09;109041;1257;72047;-67
2023/12/15 00:24:16;;;;;;;20.80;8.70;;;;;;;0.58;100.00;100494.23;108289;1257;1002458;-66
2023/12/15 00:27:04;;;;;;;21.30;10.40;;;;;;;0.59;100.00;100498.41;109117;1257;70838;-67
2023/12/15 00:29:52;;;;;;;23.10;11.30;;;;;;;0.61;100.00;100494.15;109108;1257;58687;-65
2023/12/15 00:32:40;;;;;;;23.50;11.20;;;;;;;0.61;100.00;100492.39;109114;1257;58971;-66
2023/12/15 00:35:28;;;;;;;23.40;10.60;;;;;;;0.63;100.00;100499.68;108967;1257;74294;-65
2023/12/15 00:38:15;;;;;;;23.40;10.00;;;;;;;0.61;100.00;100501.48;109104;1257;68727;-65
2023/12/15 00:41:04;;;;;;;22.30;9.60;;;;;;;0.60;100.00;100503.96;109125;1257;70320;-67
2023/12/15 00:43:52;;;;;;;18.80;7.60;;;;;;;0.60;100.00;100506.77;109137;1257;57348;-66
2023/12/15 00:46:39;;;;;;;19.20;8.60;;;;;;;0.57;100.00;100500.73;109140;1257;58896;-65
2023/12/15 00:49:27;;;;;;;21.80;8.60;;;;;;;0.57;100.00;100507.38;109153;1257;72773;-65
2023/12/15 00:52:15;;;;;;;23.30;10.00;;;;;;;0.56;100.00;100508.29;109095;1257;67754;-65
2023/12/15 00:55:04;;;;;;;24.20;10.40;;;;;;;0.55;100.00;100513.70;109098;1257;72473;-65
2023/12/15 00:57:51;;;;;;;22.10;9.40;;;;;;;0.54;100.00;100514.79;109085;1257;57555;-65
2023/12/15 01:00:39;;;;;;;21.50;9.90;;;;;;;0.54;100.00;100516.71;109065;1257;60078;-65
2023/12/15 01:03:30;;;;;;;21.10;9.40;;;;;;;0.57;100.00;100519.23;108299;1257;1002093;-65
2023/12/15 01:06:18;;;;;;;20.70;9.20;;;;;;;0.61;100.00;100525.06;109106;1257;66615;-66
2023/12/15 01:09:06;;;;;;;19.70;9.70;;;;;;;0.63;100.00;100524.14;109106;1257;71510;-64
2023/12/15 01:11:54;;;;;;;19.80;9.20;;;;;;;0.67;100.00;100526.45;109082;1259;57303;-70
2023/12/15 01:14:41;;;;;;;17.90;7.80;;;;;;;0.71;100.00;100527.73;109126;1257;58942;-67
2023/12/15 01:17:29;;;;;;;18.70;9.00;;;;;;;0.72;100.00;100531.20;108970;1257;72672;-68
2023/12/15 01:20:17;;;;;;;18.60;7.20;;;;;;;0.72;100.00;100541.15;109125;1257;66952;-67
2023/12/15 01:23:05;;;;;;;18.00;8.30;;;;;;;0.70;100.00;100544.54;109110;1257;72795;-67
2023/12/15 01:25:53;;;;;;;18.40;8.70;;;;;;;0.68;100.00;100547.73;109119;1257;58902;-68
2023/12/15 01:28:41;;;;;;;19.60;8.80;;;;;;;0.62;100.00;100538.48;109153;1257;60115;-69
2023/12/15 01:31:28;;;;;;;23.00;8.60;;;;;;;0.70;100.00;100554.86;109106;1257;71456;-66
2023/12/15 01:34:16;;;;;;;23.80;8.90;;;;;;;0.70;100.00;100566.88;109056;1257;66607;-67
2023/12/15 01:37:04;;;;;;;17.70;8.30;;;;;;;0.70;100.00;100560.95;108962;1257;72414;-66
2023/12/15 01:39:52;;;;;;;20.60;7.90;;;;;;;0.71;100.00;100562.16;108962;1257;59573;-67
2023/12/15 01:42:40;;;;;;;15.40;6.40;;;;;;;0.70;100.00;100565.69;109134;1257;60455;-67
2023/12/15 01:45:28;;;;;;;14.90;7.10;;;;;;;0.70;100.00;100564.45;109125;1257;72309;-68
2023/12/15 01:48:16;;;;;;;14.90;5.80;;;;;;;0.68;100.00;100560.30;109144;1257;66356;-65
2023/12/15 01:51:04;;;;;;;13.90;6.00;;;;;;;0.65;100.00;100556.70;109050;1257;73665;-66
2023/12/15 01:53:52;;;;;;;14.90;6.70;;;;;;;0.64;100.00;100557.65;109021;1259;57402;-66
2023/12/15 01:56:40;;;;;;;14.90;6.50;;;;;;;0.61;100.00;100561.90;108995;1259;58856;-67
2023/12/15 01:59:43;;;;;;;14.10;6.00;;;;;;;0.59;100.00;100562.51;108917;1260;71496;-66
2023/12/15 02:02:31;;;;;;;14.00;6.40;;;;;;;0.58;100.00;100560.60;109066;1259;68326;-65
2023/12/15 02:05:19;;;;;;;12.60;5.40;;;;;;;0.56;100.00;100566.08;108963;1259;73575;-65
2023/12/15 02:08:07;;;;;;;14.10;6.10;;;;;;;0.54;100.00;100566.49;109017;1259;59474;-66
2023/12/15 02:10:55;;;;;;;21.80;9.30;;;;;;;0.54;100.00;100563.52;109052;1259;59105;-65
2023/12/15 02:13:43;;;;;;;98.00;34.70;;;;;;;0.55;100.00;100562.78;109000;1259;73250;-64
2023/12/15 02:16:31;;;;;;;74.10;27.30;;;;;;;0.55;100.00;100567.15;109002;1260;66331;-67
2023/12/15 02:19:18;;;;;;;93.50;31.10;;;;;;;0.54;100.00;100570.14;109025;1259;72345;-67
2023/12/15 02:22:06;;;;;;;109.30;36.70;;;;;;;0.52;100.00;100575.27;108934;1259;58184;-65
2023/12/15 02:24:54;;;;;;;50.70;18.30;;;;;;;0.53;100.00;100581.52;108968;1259;61193;-65
2023/12/15 02:27:42;;;;;;;25.80;10.90;;;;;;;0.51;100.00;100588.39;108970;1259;71619;-63
2023/12/15 02:30:30;;;;;;;20.00;8.90;;;;;;;0.47;100.00;100594.79;109063;1259;68992;-64
2023/12/15 02:33:18;;;;;;;18.10;8.30;;;;;;;0.43;100.00;100598.56;109032;1259;72775;-64
2023/12/15 02:36:07;;;;;;;14.40;6.80;;;;;;;0.40;100.00;100598.83;108239;1260;1002310;-64
2023/12/15 02:38:54;;;;;;;12.50;4.90;;;;;;;0.36;100.00;100602.08;109030;1259;61495;-66
2023/12/15 02:42:00;;;;;;;11.40;4.80;;;;;;;0.34;100.00;100604.03;109027;1259;71737;-65
2023/12/15 02:44:48;;;;;;;11.00;5.00;;;;;;;0.35;100.00;100602.80;109013;1259;68858;-63
2023/12/15 02:47:37;;;;;;;12.40;5.10;;;;;;;0.32;100.00;100604.77;109054;1259;73378;-64
2023/12/15 02:50:25;;;;;;;12.90;5.80;;;;;;;0.34;100.00;100602.63;109029;1259;58294;-67
2023/12/15 02:53:14;;;;;;;12.80;5.30;;;;;;;0.33;100.00;100596.71;109099;1257;60212;-65
2023/12/15 02:56:02;;;;;;;11.50;5.40;;;;;;;0.32;100.00;100596.94;109153;1257;73973;-66
2023/12/15 02:58:50;;;;;;;10.50;4.80;;;;;;;0.33;100.00;100600.21;109139;1257;66625;-67
2023/12/15 03:01:38;;;;;;;10.20;4.40;;;;;;;0.28;100.00;100600.00;109064;1257;72348;-66
2023/12/15 03:04:26;;;;;;;10.60;4.60;;;;;;;0.28;100.00;100617.64;109059;1257;57465;-64
2023/12/15 03:07:13;;;;;;;11.30;4.90;;;;;;;0.28;100.00;100621.99;109068;1257;58204;-65
2023/12/15 03:10:01;;;;;;;11.40;5.20;;;;;;;0.27;100.00;100619.23;109025;1257;74143;-65
2023/12/15 03:12:49;;;;;;;14.90;6.00;;;;;;;0.24;100.00;100624.73;109082;1257;68717;-65
2023/12/15 03:15:37;;;;;;;19.70;8.60;;;;;;;0.23;100.00;100624.93;108978;1257;70553;-65
2023/12/15 03:18:24;;;;;;;40.90;13.20;;;;;;;0.23;100.00;100627.34;109018;1257;58968;-64
2023/12/15 03:21:12;;;;;;;26.70;9.60;;;;;;;0.27;100.00;100630.58;109169;1257;58995;-64
2023/12/15 03:24:00;;;;;;;24.90;9.00;;;;;;;0.30;100.00;100625.95;109081;1257;72299;-64
2023/12/15 03:26:48;;;;;;;30.50;12.60;;;;;;;0.31;100.00;100613.86;109164;1257;69019;-65
2023/12/15 03:29:53;;;;;;;14.10;5.40;;;;;;;0.33;100.00;100591.83;108962;1257;71398;-63
2023/12/15 03:32:42;;;;;;;11.80;4.90;;;;;;;0.28;100.00;100592.66;108992;1257;57320;-63
2023/12/15 03:35:30;;;;;;;10.90;5.10;;;;;;;0.23;100.00;100603.64;109170;1257;59169;-64
2023/12/15 03:38:19;;;;;;;12.30;5.20;;;;;;;0.17;100.00;100605.35;109050;1257;73026;-65
2023/12/15 03:41:06;;;;;;;11.20;5.00;;;;;;;0.19;100.00;100617.00;109053;1257;67153;-65
2023/12/15 03:43:54;;;;;;;11.90;5.50;;;;;;;0.20;100.00;100623.43;109114;1257;70143;-66
2023/12/15 03:46:42;;;;;;;11.60;5.30;;;;;;;0.21;100.00;100633.52;109108;1257;57374;-65
2023/12/15 03:49:30;;;;;;;10.90;4.90;;;;;;;0.18;100.00;100638.98;109040;1257;59074;-65
2023/12/15 03:52:18;;;;;;;10.50;4.60;;;;;;;0.16;100.00;100637.49;109052;1257;73254;-65
2023/12/15 03:55:07;;;;;;;12.70;5.30;;;;;;;0.11;100.00;100639.55;109028;1258;66311;-65
2023/12/15 03:57:54;;;;;;;11.80;5.00;;;;;;;0.08;100.00;100642.20;109001;1257;73403;-65
2023/12/15 04:00:42;;;;;;;10.00;4.50;;;;;;;0.06;100.00;100640.70;109030;1257;58503;-66
2023/12/15 04:03:30;;;;;;;12.40;5.40;;;;;;;0.02;100.00;100633.14;109134;1257;61045;-63
2023/12/15 04:06:17;;;;;;;10.70;4.80;;;;;;;0.08;100.00;100643.09;108959;1257;253969;-64
2023/12/15 04:09:05;;;;;;;11.40;5.00;;;;;;;0.10;100.00;100637.13;109056;1257;66640;-64
2023/12/15 04:11:53;;;;;;;11.20;4.90;;;;;;;0.11;100.00;100630.98;109116;1257;72917;-64
2023/12/15 04:14:41;;;;;;;12.10;5.60;;;;;;;0.11;100.00;100636.73;109079;1257;57846;-64
2023/12/15 04:17:28;;;;;;;10.10;4.20;;;;;;;0.11;100.00;100637.79;108365;1257;1002550;-63
2023/12/15 04:20:16;;;;;;;10.60;4.80;;;;;;;0.10;100.00;100632.77;109029;1257;73103;-62
2023/12/15 04:23:04;;;;;;;10.70;4.60;;;;;;;0.07;100.00;100639.28;109065;1257;67932;-63
2023/12/15 04:25:52;;;;;;;10.50;4.80;;;;;;;0.05;100.00;100645.27;109081;1257;71154;-63
2023/12/15 04:28:40;;;;;;;11.80;5.00;;;;;;;0.05;100.00;100647.37;108962;1257;59183;-66
2023/12/15 04:31:28;;;;;;;11.60;5.00;;;;;;;0.05;100.00;100653.83;109069;1257;61260;-64
2023/12/15 04:34:16;;;;;;;13.00;5.00;;;;;;;0.05;100.00;100654.16;108982;1257;74102;-64
2023/12/15 04:37:04;;;;;;;11.40;4.70;;;;;;;0.07;100.00;100650.98;108973;1257;68590;-64
2023/12/15 04:39:52;;;;;;;10.60;5.00;;;;;;;0.09;100.00;100650.91;109107;1257;73591;-64
2023/12/15 04:42:40;;;;;;;9.90;4.20;;;;;;;0.11;100.00;100647.73;109001;1257;57370;-66
2023/12/15 04:45:28;;;;;;;9.70;3.80;;;;;;;0.10;100.00;100647.25;109015;1257;59169;-65
2023/12/15 04:48:16;;;;;;;11.40;5.00;;;;;;;0.08;100.00;100648.34;108947;1257;73671;-66
2023/12/15 04:51:05;;;;;;;11.30;4.60;;;;;;;0.04;100.00;100646.16;109060;1257;67883;-66
2023/12/15 04:53:52;;;;;;;11.00;4.70;;;;;;;0.01;100.00;100651.83;108981;1259;72702;-65
2023/12/15 04:56:39;;;;;;;12.00;5.40;;;;;;;-0.03;100.00;100641.63;108946;1259;59972;-66
2023/12/15 04:59:27;;;;;;;12.20;5.30;;;;;;;0.02;100.00;100641.70;108992;1259;60045;-64
2023/12/15 05:02:15;;;;;;;12.00;5.10;;;;;;;0.02;100.00;100640.46;108980;1260;72796;-65
2023/12/15 05:05:03;;;;;;;9.90;4.10;;;;;;;0.00;100.00;100639.45;109016;1259;67606;-63
2023/12/15 05:07:51;;;;;;;10.10;4.30;;;;;;;-0.03;100.00;100638.14;109018;1259;72466;-64
2023/12/15 05:10:39;;;;;;;10.60;4.30;;;;;;;-0.04;100.00;100647.77;109000;1259;57995;-64
2023/12/15 05:13:27;;;;;;;9.30;3.90;;;;;;;-0.07;100.00;100648.54;109005;1259;60419;-64
2023/12/15 05:16:15;;;;;;;11.00;4.10;;;;;;;-0.11;100.00;100644.61;108964;1259;73639;-62
2023/12/15 05:19:02;;;;;;;11.60;5.20;;;;;;;-0.12;100.00;100652.14;109024;1259;66998;-64
2023/12/15 05:21:50;;;;;;;13.20;4.70;;;;;;;-0.09;100.00;100661.48;108948;1259;72368;-64
2023/12/15 05:24:38;;;;;;;10.30;4.60;;;;;;;-0.05;100.00;100662.44;108942;1259;57539;-65
2023/12/15 05:27:26;;;;;;;9.70;4.00;;;;;;;-0.03;100.00;100657.84;108992;1259;57777;-64
2023/12/15 05:30:14;;;;;;;10.90;4.50;;;;;;;-0.01;100.00;100654.48;108970;1259;73037;-64
2023/12/15 05:33:02;;;;;;;10.30;4.30;;;;;;;0.01;100.00;100653.77;108905;1260;67185;-63
2023/12/15 05:35:50;;;;;;;10.70;4.10;;;;;;;0.01;100.00;100654.78;108949;1259;71735;-63
2023/12/15 05:38:38;;;;;;;10.50;4.50;;;;;;;-0.02;100.00;100653.81;109000;1259;58568;-64
2023/12/15 05:41:26;;;;;;;12.00;5.20;;;;;;;-0.06;100.00;100652.15;108929;1259;58706;-62
2023/12/15 05:44:15;;;;;;;10.50;4.20;;;;;;;-0.08;100.00;100650.83;108939;1259;73086;-64
2023/12/15 05:47:03;;;;;;;11.30;4.60;;;;;;;-0.12;100.00;100652.48;108951;1259;66698;-68
2023/12/15 05:49:53;;;;;;;12.60;5.70;;;;;;;-0.13;100.00;100664.03;109036;1259;73413;-63
2023/12/15 05:52:41;;;;;;;11.20;4.80;;;;;;;-0.11;100.00;100663.98;109079;1257;58834;-67
2023/12/15 05:55:29;;;;;;;11.20;4.80;;;;;;;-0.10;100.00;100662.91;108992;1257;61433;-65
2023/12/15 05:58:17;;;;;;;12.60;5.30;;;;;;;-0.09;100.00;100658.88;109044;1257;73227;-61
2023/12/15 06:01:05;;;;;;;10.90;4.90;;;;;;;-0.11;100.00;100654.91;109040;1257;67626;-63
2023/12/15 06:03:53;;;;;;;10.50;4.50;;;;;;;-0.13;100.00;100654.77;108964;1257;71349;-61
2023/12/15 06:06:41;;;;;;;11.00;4.70;;;;;;;-0.12;100.00;100665.94;109080;1257;58781;-63
2023/12/15 06:09:29;;;;;;;12.00;5.10;;;;;;;-0.10;100.00;100666.73;109000;1258;61260;-60
2023/12/15 06:12:17;;;;;;;10.40;4.30;;;;;;;-0.08;100.00;100670.72;109067;1257;74178;-63
2023/12/15 06:15:08;;;;;;;11.70;4.80;;;;;;;-0.08;100.00;100679.94;108890;1261;68874;-62
2023/12/15 06:17:55;;;;;;;12.60;5.60;;;;;;;-0.06;100.00;100677.98;108962;1257;72734;-62
2023/12/15 06:20:44;;;;;;;13.50;5.60;;;;;;;-0.04;100.00;100677.23;108990;1257;57360;-64
2023/12/15 06:23:31;;;;;;;13.70;5.80;;;;;;;-0.00;100.00;100676.98;108950;1257;59457;-63
2023/12/15 06:26:24;;;;;;;13.60;5.40;;;;;;;0.04;100.00;100668.14;108994;1258;73187;-64
2023/12/15 06:29:13;;;;;;;13.20;6.10;;;;;;;0.06;100.00;100671.77;108986;1259;69225;-62
2023/12/15 06:32:01;;;;;;;13.10;5.50;;;;;;;0.03;100.00;100675.50;109120;1258;74017;-62
2023/12/15 06:34:49;;;;;;;12.40;5.20;;;;;;;0.01;100.00;100675.04;108976;1259;57591;-63
2023/12/15 06:37:37;;;;;;;14.60;5.80;;;;;;;0.02;100.00;100671.86;109085;1259;58935;-62
2023/12/15 06:40:25;;;;;;;13.60;5.70;;;;;;;0.02;100.00;100671.52;109008;1257;74022;-62
2023/12/15 06:43:13;;;;;;;13.40;6.40;;;;;;;0.02;100.00;100672.93;108964;1257;67610;-64
2023/12/15 06:46:00;;;;;;;17.40;7.40;;;;;;;0.03;100.00;100673.41;109100;1257;71553;-61
2023/12/15 06:48:48;;;;;;;15.50;6.40;;;;;;;0.06;100.00;100672.30;109118;1257;59724;-62
2023/12/15 06:51:37;;;;;;;15.50;7.00;;;;;;;0.09;100.00;100668.73;109091;1257;59790;-61
2023/12/15 06:54:24;;;;;;;17.30;6.90;;;;;;;0.12;100.00;100678.77;109152;1257;73015;-61
2023/12/15 06:57:13;;;;;;;13.90;5.90;;;;;;;0.09;100.00;100679.19;109086;1257;67855;-62
2023/12/15 07:00:01;;;;;;;17.40;6.80;;;;;;;0.14;100.00;100677.69;109090;1257;71376;-65
2023/12/15 07:02:49;;;;;;;17.00;7.90;;;;;;;0.15;100.00;100679.56;109055;1257;58530;-61
2023/12/15 07:05:37;;;;;;;15.50;6.70;;;;;;;0.19;100.00;100674.06;109177;1257;61227;-64
2023/12/15 07:08:25;;;;;;;15.00;6.40;;;;;;;0.23;100.00;100673.09;108964;1257;72803;-65
2023/12/15 07:11:13;;;;;;;15.60;6.70;;;;;;;0.25;100.00;100674.77;109069;1257;66835;-63
2023/12/15 07:14:01;;;;;;;12.90;5.20;;;;;;;0.29;100.00;100676.09;109086;1257;73776;-64
2023/12/15 07:16:49;;;;;;;12.20;4.60;;;;;;;0.31;100.00;100678.65;109149;1257;58280;-62
2023/12/15 07:19:38;;;;;;;14.40;5.80;;;;;;;0.34;100.00;100674.38;109242;1257;60450;-61
2023/12/15 07:22:27;;;;;;;13.50;5.90;;;;;;;0.37;100.00;100672.20;109125;1257;73807;-64
2023/12/15 07:25:15;;;;;;;13.10;5.50;;;;;;;0.40;100.00;100669.53;109055;1257;67874;-63
2023/12/15 07:28:04;;;;;;;14.90;5.50;;;;;;;0.42;100.00;100672.96;109168;1257;73388;-61
2023/12/15 07:30:51;;;;;;;12.50;5.60;;;;;;;0.44;100.00;100676.92;109162;1257;57371;-62
2023/12/15 07:33:40;;;;;;;12.00;5.30;;;;;;;0.45;100.00;100679.85;109166;1256;60233;-64
2023/12/15 07:36:27;;;;;;;11.30;4.80;;;;;;;0.46;100.00;100679.66;109106;1257;73238;-61
2023/12/15 07:39:21;;;;;;;9.70;4.20;;;;;;;0.48;100.00;100688.50;109181;1256;65878;-62
2023/12/15 07:42:08;;;;;;;9.70;4.30;;;;;;;0.51;100.00;100688.09;109163;1257;70643;-62
2023/12/15 07:44:56;;;;;;;10.40;3.40;;;;;;;0.55;100.00;100701.45;109139;1257;57949;-62
2023/12/15 07:47:44;;;;;;;11.10;4.30;;;;;;;0.56;100.00;100699.14;109075;1257;57875;-63
2023/12/15 07:50:32;;;;;;;10.70;4.40;;;;;;;0.59;100.00;100702.90;109028;1257;71480;-64
2023/12/15 07:53:20;;;;;;;11.00;4.50;;;;;;;0.63;100.00;100710.29;109021;1257;66425;-63
2023/12/15 07:56:18;;;;;;;10.50;4.70;;;;;;;0.67;100.00;100711.06;108955;1257;72318;-61
2023/12/15 07:59:07;;;;;;;11.30;4.90;;;;;;;0.68;100.00;100711.75;108981;1257;58785;-63
2023/12/15 08:01:56;;;;;;;11.20;4.70;;;;;;;0.76;100.00;100718.18;109160;1257;60014;-62
2023/12/15 08:04:44;;;;;;;9.10;4.00;;;;;;;0.80;100.00;100718.23;108785;1262;73721;-62
2023/12/15 08:07:32;;;;;;;10.10;4.60;;;;;;;0.85;100.00;100721.61;108865;1262;68607;-63
2023/12/15 08:10:20;;;;;;;11.50;4.40;;;;;;;0.90;100.00;100720.06;108786;1262;72676;-62
2023/12/15 08:13:12;;;;;;;10.10;3.50;;;;;;;0.99;100.00;100724.91;108826;1262;58167;-63
2023/12/15 08:16:03;;;;;;;9.30;3.90;;;;;;;1.03;100.00;100722.70;107959;1262;1002148;-65
2023/12/15 08:18:50;;;;;;;9.80;4.40;;;;;;;1.06;100.00;100725.41;108613;1262;73807;-64
2023/12/15 08:21:38;;;;;;;9.80;4.10;;;;;;;1.09;100.00;100724.63;108837;1262;66466;-61
2023/12/15 08:24:27;;;;;;;11.00;4.70;;;;;;;1.09;100.00;100730.02;108820;1262;72757;-65
2023/12/15 08:27:16;;;;;;;9.80;4.30;;;;;;;1.11;100.00;100731.74;108752;1262;58131;-63
2023/12/15 08:30:07;;;;;;;10.30;4.70;;;;;;;1.10;100.00;100736.82;108837;1262;59979;-63
2023/12/15 08:32:55;;;;;;;9.50;4.50;;;;;;;1.10;100.00;100735.63;108795;1262;72785;-62
2023/12/15 08:35:43;;;;;;;9.60;4.10;;;;;;;1.11;100.00;100737.50;108820;1263;66511;-62
2023/12/15 08:38:31;;;;;;;9.80;4.30;;;;;;;1.10;100.00;100740.49;108756;1262;72519;-62
2023/12/15 08:41:19;;;;;;;10.20;4.80;;;;;;;1.11;100.00;100747.27;108768;1263;57574;-63
2023/12/15 08:44:07;;;;;;;9.90;4.20;;;;;;;1.14;100.00;100748.27;109081;1257;57954;-61
2023/12/15 08:47:10;;;;;;;10.30;4.50;;;;;;;1.15;100.00;100754.34;109069;1257;73136;-62
2023/12/15 08:49:58;;;;;;;9.20;3.90;;;;;;;1.16;100.00;100753.96;109031;1258;68351;-63
2023/12/15 08:52:47;;;;;;;10.90;5.00;;;;;;;1.16;100.00;100753.96;108850;1258;71424;-66
2023/12/15 08:55:35;;;;;;;9.30;4.40;;;;;;;1.20;100.00;100754.20;108972;1257;58744;-64
2023/12/15 08:58:23;;;;;;;10.10;4.60;;;;;;;1.26;100.00;100757.54;109082;1257;60102;-66
2023/12/15 09:01:11;;;;;;;11.00;5.00;;;;;;;1.32;100.00;100766.63;109069;1257;74192;-61
2023/12/15 09:04:00;;;;;;;9.10;3.90;;;;;;;1.35;100.00;100769.36;108935;1258;67594;-64
2023/12/15 09:06:47;;;;;;;9.90;4.30;;;;;;;1.37;100.00;100766.15;108993;1257;73728;-61
2023/12/15 09:09:40;;;;;;;8.40;3.70;;;;;;;1.37;100.00;100771.73;108973;1258;58516;-62
2023/12/15 09:12:28;;;;;;;11.70;5.10;;;;;;;1.36;100.00;100777.19;108948;1259;59456;-61
2023/12/15 09:15:16;;;;;;;12.10;5.60;;;;;;;1.40;100.00;100781.46;108966;1257;73542;-63
2023/12/15 09:18:04;;;;;;;10.60;4.90;;;;;;;1.42;100.00;100784.55;109111;1257;66664;-64
2023/12/15 09:20:56;;;;;;;10.30;4.50;;;;;;;1.46;100.00;100786.17;109124;1257;73007;-62
2023/12/15 09:23:44;;;;;;;13.00;5.90;;;;;;;1.48;100.00;100789.26;109082;1257;57907;-63
2023/12/15 09:26:31;;;;;;;10.80;5.10;;;;;;;1.50;100.00;100784.31;109070;1257;59864;-63
2023/12/15 09:29:19;;;;;;;15.00;6.40;;;;;;;1.50;100.00;100787.10;108977;1257;73097;-61
2023/12/15 09:32:07;;;;;;;16.30;6.60;;;;;;;1.48;100.00;100780.54;108977;1257;67779;-63
2023/12/15 09:34:54;;;;;;;14.90;6.40;;;;;;;1.49;100.00;100777.68;109037;1259;71517;-62
2023/12/15 09:37:42;;;;;;;15.20;6.40;;;;;;;1.49;100.00;100782.23;109040;1258;58794;-64
2023/12/15 09:40:32;;;;;;;20.40;7.00;;;;;;;1.53;100.00;100779.31;108732;1263;60399;-64
2023/12/15 09:43:20;;;;;;;15.60;6.20;;;;;;;1.56;100.00;100782.23;108807;1263;74040;-61
2023/12/15 09:46:08;;;;;;;17.60;6.40;;;;;;;1.55;100.00;100786.80;108929;1263;67891;-63
2023/12/15 09:48:57;;;;;;;14.50;6.00;;;;;;;1.59;100.00;100787.19;108951;1263;71378;-66
2023/12/15 09:51:52;;;;;;;13.60;5.10;;;;;;;1.73;100.00;100782.61;108864;1263;57395;-62
2023/12/15 09:54:41;;;;;;;12.90;4.60;;;;;;;1.97;100.00;100782.95;108791;1263;58876;-63
2023/12/15 09:57:29;;;;;;;11.80;4.70;;;;;;;2.28;100.00;100788.28;108799;1262;72794;-64
2023/12/15 10:00:18;;;;;;;11.00;4.60;;;;;;;2.47;100.00;100793.12;108821;1263;67960;-64
2023/12/15 10:03:06;;;;;;;12.10;4.50;;;;;;;2.51;100.00;100793.85;108758;1263;73685;-63
2023/12/15 10:05:55;;;;;;;11.30;4.50;;;;;;;2.50;100.00;100795.98;108761;1262;57474;-62
2023/12/15 10:08:44;;;;;;;12.40;4.30;;;;;;;2.46;100.00;100798.39;108764;1263;61151;-65
2023/12/15 10:11:51;;;;;;;10.90;3.80;;;;;;;2.42;100.00;100799.42;108914;1257;72828;-63
2023/12/15 10:14:39;;;;;;;9.40;3.60;;;;;;;2.37;100.00;100806.04;109098;1259;66651;-64
2023/12/15 10:17:28;;;;;;;12.20;5.70;;;;;;;2.32;100.00;100801.45;109044;1258;73501;-63
2023/12/15 10:20:16;;;;;;;13.00;5.10;;;;;;;2.30;100.00;100804.84;108921;1258;57514;-63
2023/12/15 10:23:06;;;;;;;11.60;3.90;;;;;;;2.27;100.00;100813.52;109009;1260;60451;-62
2023/12/15 10:25:58;;;;;;;8.90;3.60;;;;;;;2.25;100.00;100818.84;108969;1263;73000;-64
2023/12/15 10:28:46;;;;;;;8.90;3.10;;;;;;;2.17;100.00;100823.65;109011;1258;66829;-62
2023/12/15 10:31:37;;;;;;;9.90;4.00;;;;;;;2.15;100.00;100824.95;108950;1259;71187;-62
2023/12/15 10:34:27;;;;;;;9.30;3.40;;;;;;;2.12;100.00;100831.84;108995;1258;57450;-62
2023/12/15 10:37:15;;;;;;;12.80;5.80;;;;;;;2.10;100.00;100838.56;108987;1257;61079;-62
2023/12/15 10:40:05;;;;;;;12.10;4.90;;;;;;;2.04;100.00;100838.23;108986;1257;73764;-63
2023/12/15 10:42:57;;;;;;;15.20;6.60;;;;;;;1.98;100.00;100839.61;109095;1257;68769;-62
2023/12/15 10:45:47;;;;;;;16.40;7.20;;;;;;;1.95;100.00;100833.94;109010;1258;72712;-63
2023/12/15 10:48:39;;;;;;;14.70;5.30;;;;;;;1.96;100.00;100831.27;108920;1257;58820;-63
2023/12/15 10:51:32;;;;;;;16.50;6.60;;;;;;;1.94;100.00;100828.01;109075;1260;60161;-62
2023/12/15 10:54:29;;;;;;;14.40;5.20;;;;;;;1.91;100.00;100823.72;109016;1258;72832;-61
2023/12/15 10:57:19;;;;;;;11.90;4.30;;;;;;;1.90;100.00;100820.08;109049;1257;69235;-63
2023/12/15 11:00:08;;;;;;;12.70;4.50;;;;;;;1.88;100.00;100822.25;109003;1257;72645;-62
2023/12/15 11:02:57;;;;;;;10.90;4.10;;;;;;;1.83;100.00;100819.23;109026;1257;58678;-63
2023/12/15 11:05:45;;;;;;;11.50;4.80;;;;;;;1.85;100.00;100828.95;109110;1258;58063;-62
2023/12/15 11:08:33;;;;;;;10.50;4.60;;;;;;;1.85;100.00;100827.73;108971;1258;74321;-63
2023/12/15 11:11:22;;;;;;;8.70;3.50;;;;;;;1.84;100.00;100835.30;109111;1257;67930;-64
2023/12/15 11:14:11;;;;;;;9.00;3.70;;;;;;;1.82;100.00;100835.53;109035;1258;73575;-63
2023/12/15 11:16:59;;;;;;;7.60;3.10;;;;;;;1.82;100.00;100837.27;109069;1257;57341;-62
2023/12/15 11:19:57;;;;;;;13.20;4.80;;;;;;;1.78;100.00;100830.92;109113;1257;58747;-62
2023/12/15 11:22:50;;;;;;;16.80;5.10;;;;;;;1.74;100.00;100827.20;109002;1257;71811;-63
2023/12/15 11:25:49;;;;;;;10.60;3.60;;;;;;;1.75;100.00;100825.59;109115;1257;68500;-62
2023/12/15 11:28:43;;;;;;;8.90;3.20;;;;;;;1.80;100.00;100828.25;108952;1257;71354;-63
2023/12/15 11:31:33;;;;;;;9.10;3.70;;;;;;;1.80;100.00;100830.34;108957;1257;59955;-65
2023/12/15 11:34:42;;;;;;;10.10;3.90;;;;;;;1.76;100.00;100830.98;109163;1257;61311;-63
2023/12/15 11:37:31;;;;;;;8.90;3.90;;;;;;;1.76;100.00;100835.70;109076;1257;72878;-64
2023/12/15 11:40:19;;;;;;;8.90;3.60;;;;;;;1.79;100.00;100835.82;109083;1257;67946;-62
2023/12/15 11:43:08;;;;;;;8.60;3.50;;;;;;;1.78;100.00;100836.87;109160;1257;72407;-63
2023/12/15 11:45:57;;;;;;;10.00;3.80;;;;;;;1.83;100.00;100835.67;109040;1256;57429;-64
2023/12/15 11:48:45;;;;;;;8.10;3.40;;;;;;;1.87;100.00;100827.16;109189;1257;60969;-63
2023/12/15 11:51:32;;;;;;;9.40;3.10;;;;;;;1.88;100.00;100825.74;109172;1257;74196;-64
2023/12/15 11:54:25;;;;;;;9.20;3.80;;;;;;;1.89;100.00;100821.17;109080;1257;66843;-63
2023/12/15 11:57:12;;;;;;;11.30;3.90;;;;;;;1.89;100.00;100814.86;109118;1257;72695;-62
2023/12/15 12:00:00;;;;;;;8.80;3.70;;;;;;;1.86;100.00;100812.65;109100;1257;57339;-62
2023/12/15 12:02:48;;;;;;;10.60;4.10;;;;;;;1.83;100.00;100817.66;109182;1256;61619;-61
2023/12/15 12:05:38;;;;;;;9.70;3.90;;;;;;;1.80;100.00;100818.80;109074;1257;71700;-61
2023/12/15 12:08:26;;;;;;;10.50;3.90;;;;;;;1.79;100.00;100813.92;109099;1257;68934;-62
2023/12/15 12:11:16;;;;;;;13.20;5.60;;;;;;;1.75;100.00;100815.10;109046;1257;71064;-63
2023/12/15 12:14:04;;;;;;;10.60;4.70;;;;;;;1.77;100.00;100817.15;109145;1257;58960;-64
2023/12/15 12:16:52;;;;;;;12.10;4.70;;;;;;;1.74;100.00;100819.14;109091;1257;58096;-61
2023/12/15 12:19:43;;;;;;;12.30;5.10;;;;;;;1.72;100.00;100816.21;109074;1257;73845;-61
2023/12/15 12:22:32;;;;;;;13.80;5.60;;;;;;;1.68;100.00;100811.63;109110;1257;66790;-64
2023/12/15 12:25:19;;;;;;;14.80;6.50;;;;;;;1.67;100.00;100820.93;109058;1256;71464;-62
2023/12/15 12:28:07;;;;;;;18.90;9.50;;;;;;;1.69;100.00;100825.08;108992;1257;59927;-61
2023/12/15 12:30:56;;;;;;;16.10;7.90;;;;;;;1.68;100.00;100831.37;109205;1256;59292;-62
2023/12/15 12:33:44;;;;;;;18.50;8.40;;;;;;;1.69;100.00;100830.14;109155;1257;72754;-61
2023/12/15 12:36:32;;;;;;;16.10;7.20;;;;;;;1.70;100.00;100837.80;109097;1258;67796;-64
2023/12/15 12:39:24;;;;;;;17.00;7.50;;;;;;;1.69;100.00;100832.24;108986;1257;72371;-61
2023/12/15 12:42:12;;;;;;;14.90;6.50;;;;;;;1.74;100.00;100838.58;109106;1257;57306;-64
2023/12/15 12:45:06;;;;;;;14.10;7.10;;;;;;;1.75;100.00;100838.73;109189;1256;58787;-63
2023/12/15 12:47:54;;;;;;;17.70;7.40;;;;;;;1.74;100.00;100836.66;109116;1257;72802;-64